Freetown, MA

8:14 AM EST on December 16, 2019 (GMT -0500)
Assonet | | Change Station
Active Advisory: Winter Weather Advisory

Elev 0 ft 41.79 °N, 71.07 °W | Updated 9 seconds ago

Clear
Clear
31.3 °F
Feels Like 31 °F
N
0.7
Wind Variable Wind from SE
Gusts 1.1 mph

Today
High -- | Low -- °F
--% Chance of Precip.
Yesterday
High -- | Low -- °F
Precip. -- in
Pressure 30.22 in
Visibility 10.0 miles
Clouds Clear
Windchill 31 °F
Dew Point 18 °F
Humidity 59%
Rainfall 0.00 in
Snow Depth Not available.
7:04 AM 4:14 PM
Waning Gibbous, 79% visible
METAR KTAN 161252Z AUTO 26004KT 10SM CLR 00/M09 A3022 RMK AO2 SLP233 T00001094
Pressure 30.22 in
Visibility 10.0 miles
Clouds Clear
Windchill 31 °F
Dew Point 18 °F
Humidity 59%
Rainfall 0.00 in
Snow Depth Not available.
7:04 AM 4:14 PM
Waning Gibbous, 79% visible
METAR KTAN 161252Z AUTO 26004KT 10SM CLR 00/M09 A3022 RMK AO2 SLP233 T00001094

Get Your Daily Forecast Email!

Thanks for signing up!

Be on the lookout for a verification email in your inbox.

You'll start receiving severe weather alerts in your inbox..

×

10-Day Weather Forecast

Almanac

Astronomy

Dec. 16, 2019 Rise Set
Actual Time
Civil Twilight
Nautical Twilight
Astronomical Twilight
Moon
Length of Visible Light
Length of Day
Tomorrow will be .
, % of the Moon is Illuminated

Today's Extremes

State Highs State Lows

Community

WunderPhotos

Category 6

Welcome to Category 6. This is the collective home for Weather Underground's featured writeups by Dr. Jeff Masters (right), Bob Henson (left), Chris Burt, and other regular contributors.

Nearby

Air Quality

  Air Quality AQ Index Pollutant
Not available.

Snow Depth

Station Depth Elevation

Earthquake Activity

City Distance Mag. Time & Date
Minimum magnitude displayed is 2.5.

Coastal Water Temperatures

Place Temperature

Stations

Nearby Weather Stations

Station Location Temp. Windchill Dew Point Humidity Wind Precip. Elev Updated Type
                   

Watches & Warnings

Winter Weather Advisory
Issued: 3:44 AM EST Dec. 16, 2019 – National Weather Service

... Winter Weather Advisory in effect from 1 am to 1 PM EST
Tuesday...

* what... mixed precipitation expected. Total snow accumulations
of 1 to 3 inches and ice accumulations of a light glaze.

* Where... mainly along and southeast of the Boston to Providence
corridor.

* When... from 1 am to 1 PM EST Tuesday.

* Impacts... plan on slippery Road conditions. The hazardous
conditions will impact the morning commute.

* Additional details... moderate to heavy snow is expected to be in
progress during the start of the Tuesday morning commute near
and especially south of the Massachusetts Turnpike. The
precipitation will transition to a brief period of sleet and
freezing rain during the morning before a transition to all
rain.

Precautionary/preparedness actions...

Slow down and use caution while traveling.



Frank